Kailua, HI

3:59 PM HST on August 21, 2014 (GMT -1000)
Kailua Beach | Change Station
CLOSE
Current Station
Personal Weather Station
Location: Kailua, HI
Elevation: 0 ft
Nearby Weather Stations

Elev 0 ft 21.40 °N, 157.73 °W | Updated 8 minutes ago

Light Rain
Light Rain
77.9 °F
Feels Like 80 °F
N
5.0
Wind Variable Wind from East
Gusts 7.0 mph

Today
High -- | Low -- °F
--% Chance of Precip.
Yesterday
High -- | Low -- °F
Precip. -- in
6:11 AM 6:56 PM
Waning Crescent, 11% visible
Pressure 30.00 in
Visibility 5.0 miles
Clouds Scattered Clouds 1500 ft
Mostly Cloudy 2300 ft
Overcast 6500 ft
Heat Index 80 °F
Dew Point 76 °F
Humidity 92%
Rainfall 0.17 in
Snow Depth Not available.
UV 2 out of 12
Pollen Not available.
Air Quality Not available.
Flu Activity Not available.
SPECI PHNG 220112Z 06007KT 8000 -RA SCT015 BKN023 OVC065 27/23 A3000 RMK AO2 P0000 $

More Conditions Fewer Conditions

Pressure 30.00 in
Visibility 5.0 miles
Clouds Scattered Clouds 1500 ft
Mostly Cloudy 2300 ft
Overcast 6500 ft
Heat Index 80 °F
Dew Point 76 °F
Humidity 92%
Rainfall 0.17 in
Snow Depth Not available.
UV 2 out of 12
Pollen Not available.
Air Quality Not available.
Flu Activity Not available.
SPECI PHNG 220112Z 06007KT 8000 -RA SCT015 BKN023 OVC065 27/23 A3000 RMK AO2 P0000 $

More Conditions Fewer Conditions

10-Day Weather Forecast

Almanac

Astronomy

Aug. 21, 2014 Rise Set
Actual Time 6:11 AM HST 6:56 PM HST
Civil Twilight 5:48 AM HST 7:19 PM HST
Nautical Twilight 5:21 AM HST 7:46 PM HST
Astronomical Twilight 4:54 AM HST 8:13 PM HST
Moon 3:03 AM HST (8/21) 4:23 PM HST (8/21)
Length of Visible Light 13h 30m
Length of Day
12h 45m
Tomorrow will be 1m 7s shorter.
Waning Crescent, 11% of the Moon is Illuminated
Today
Waning Crescent
Aug 25
New
Sep 2
First Quarter
Sep 8
Full
Sep 15
Last Quarter

Today's Extremes

State Highs State Lows

Community

WunderPhotos

Upload Photos

1,746,105 photos uploaded!

WunderBlogs® & News

Nearby

Snow Depth

Station Depth Elevation
No new snow has been reported.

Earthquake Activity

City Distance Mag. Time & Date
No recent earthquake activity has been reported nearby.
Minimum magnitude displayed is 2.5.

Coastal Water Temperatures

Place Temperature
No Stations Reporting

Nearby Weather Stations